Главная страница
METAR-TAF:

METAR-TAF

Аэропорты :

Danbury Municipal Airport

Danbury, Коннектикут, США

широта: 41-22-18N, долгота: 073-29-04W, высота над уровнем моря: 139 м

Текущие метеонаблюдения

Эта сводка был подготовлена 22 минут назад, в 05:53 UTC
Штиль
Температура 11°C
Влажность 94%
Давление 1020 hPa
Видимость: 16.1 км
ясное небо

METAR: KDXR 170553Z AUTO 00000KT 10SM CLR 11/10 A3012 RMK AO2 SLP196 T01060100 10167 20106 51009

Время: 02:15 (06:15 UTC)


TAF: отсутствует

Метеонаблюдения и прогнозы для более 4000 аэропортов (сводки METAR и TAF).

Имеющиеся станции представлены на карте желтыми и красными точками.

Чтобы увидеть название станции, наведите на нее мышь.

Затем щелкните, чтобы увидеть метеонаблюдения и метеопрогнозы.

Управление картой: чтобы увеличить масштаб, щелкните зеленые кнопки с черным крестиком; чтобы уменьшить масштаб, щелкните зеленую кнопку с тире; для просмотра соседних карт щелкайте зеленые стрелки.


METAR-TAF: